Time;durP1;ratioP1;P1;durP2;ratioP2;P2;SDS_P1;SDS_P2;PMS_P1;PMS_P2;Temp;Humidity;BMP_temperature;BMP_pressure;BME280_temperature;BME280_humidity;BME280_pressure;Samples;Min_cycle;Max_cycle;Signal;HPM_P1;HPM_P2
2023/07/23 00:00:30;;;;;;;10.75;6.30;;;15.20;99.90;;;;;;5033735;28;20184;-69
2023/07/23 00:02:56;;;;;;;11.38;7.28;;;15.10;99.90;;;;;;5033915;28;20138;-68
2023/07/23 00:05:23;;;;;;;14.38;7.18;;;15.10;99.90;;;;;;5034243;28;20041;-68
2023/07/23 00:07:57;;;;;;;11.32;7.07;;;15.10;99.90;;;;;;5033671;28;20037;-68
2023/07/23 00:10:23;;;;;;;10.77;7.37;;;15.10;99.90;;;;;;5049551;28;20046;-68
2023/07/23 00:12:50;;;;;;;12.15;6.95;;;15.10;99.90;;;;;;5033528;28;20049;-68
2023/07/23 00:15:16;;;;;;;10.60;6.47;;;15.10;99.90;;;;;;5033738;28;20403;-69
2023/07/23 00:17:42;;;;;;;9.90;7.07;;;15.10;99.90;;;;;;5033611;28;20044;-68
2023/07/23 00:20:09;;;;;;;12.27;7.20;;;15.10;99.90;;;;;;5033633;28;20050;-69
2023/07/23 00:22:36;;;;;;;12.57;7.03;;;15.10;99.90;;;;;;5033602;28;20115;-69
2023/07/23 00:25:02;;;;;;;10.73;6.68;;;15.10;99.90;;;;;;5033339;28;20440;-68
2023/07/23 00:27:28;;;;;;;12.15;7.40;;;15.10;99.90;;;;;;5033851;28;20096;-68
2023/07/23 00:29:54;;;;;;;9.60;6.50;;;15.10;99.90;;;;;;5032389;28;20077;-69
2023/07/23 00:32:19;;;;;;;10.88;6.78;;;15.00;99.90;;;;;;5032617;28;20045;-69
2023/07/23 00:34:45;;;;;;;12.18;6.80;;;15.00;99.90;;;;;;5033106;28;20115;-68
2023/07/23 00:37:11;;;;;;;12.20;6.32;;;15.00;99.90;;;;;;5032290;28;20091;-69
2023/07/23 00:39:37;;;;;;;9.80;6.80;;;15.00;99.90;;;;;;5032968;28;20087;-68
2023/07/23 00:42:03;;;;;;;11.35;6.05;;;15.00;99.90;;;;;;5033516;28;20072;-68
2023/07/23 00:44:29;;;;;;;9.63;6.10;;;15.00;99.90;;;;;;5033462;28;20475;-68
2023/07/23 00:46:58;;;;;;;9.73;6.20;;;15.00;99.90;;;;;;5032966;28;20561;-69
2023/07/23 00:49:24;;;;;;;11.80;7.20;;;14.90;99.90;;;;;;5033412;28;20051;-68
2023/07/23 00:51:52;;;;;;;9.13;6.38;;;14.90;99.90;;;;;;5033102;28;20053;-68
2023/07/23 00:54:18;;;;;;;9.60;6.32;;;14.90;99.90;;;;;;5033520;28;20125;-69
2023/07/23 00:56:46;;;;;;;9.73;6.57;;;14.90;99.90;;;;;;5032745;28;20053;-69
2023/07/23 00:59:11;;;;;;;10.75;6.70;;;14.90;99.90;;;;;;5033348;28;20045;-69
2023/07/23 01:01:37;;;;;;;9.60;6.00;;;14.90;99.90;;;;;;5032548;28;20415;-70
2023/07/23 01:04:04;;;;;;;9.00;6.55;;;14.90;99.90;;;;;;5032168;28;20475;-69
2023/07/23 01:06:36;;;;;;;10.15;6.85;;;14.90;99.90;;;;;;5032788;28;20049;-69
2023/07/23 01:09:03;;;;;;;8.75;5.60;;;14.90;99.90;;;;;;5033262;28;20451;-68
2023/07/23 01:11:32;;;;;;;8.57;6.32;;;14.90;99.90;;;;;;5033099;28;20041;-69
2023/07/23 01:13:59;;;;;;;11.20;6.43;;;14.90;99.90;;;;;;5032524;28;20051;-68
2023/07/23 01:16:25;;;;;;;9.57;6.75;;;14.90;99.90;;;;;;5032848;28;20095;-68
2023/07/23 01:18:51;;;;;;;10.98;6.70;;;14.80;99.90;;;;;;5031343;28;20057;-69
2023/07/23 01:21:17;;;;;;;10.93;6.85;;;14.90;99.90;;;;;;5032648;28;20096;-69
2023/07/23 01:23:43;;;;;;;10.27;6.50;;;14.80;99.90;;;;;;5032261;28;20100;-69
2023/07/23 01:26:10;;;;;;;11.23;7.00;;;14.90;99.90;;;;;;5031316;28;20061;-68
2023/07/23 01:28:36;;;;;;;13.10;7.10;;;14.80;99.90;;;;;;5047987;28;20402;-68
2023/07/23 01:31:03;;;;;;;12.77;6.93;;;14.80;99.90;;;;;;5032245;28;20045;-68
2023/07/23 01:33:29;;;;;;;9.60;6.50;;;14.80;99.90;;;;;;5032592;28;20049;-68
2023/07/23 01:35:57;;;;;;;10.10;6.80;;;14.80;99.90;;;;;;5032021;28;20049;-69
2023/07/23 01:38:23;;;;;;;9.55;6.80;;;14.80;99.90;;;;;;5047654;28;20053;-69
2023/07/23 01:40:50;;;;;;;10.73;7.00;;;14.80;99.90;;;;;;5031949;28;20037;-69
2023/07/23 01:43:16;;;;;;;8.50;6.00;;;14.80;99.90;;;;;;5031782;28;20054;-68
2023/07/23 01:45:46;;;;;;;8.68;6.88;;;14.80;99.90;;;;;;5032058;28;20052;-73
2023/07/23 01:48:13;;;;;;;9.65;6.32;;;14.80;99.90;;;;;;5030599;28;20050;-69
2023/07/23 01:50:39;;;;;;;9.88;5.97;;;14.80;99.90;;;;;;5031879;28;20053;-69
2023/07/23 01:53:06;;;;;;;10.43;6.07;;;14.80;99.90;;;;;;5031256;28;20049;-69
2023/07/23 01:55:33;;;;;;;10.27;5.90;;;14.80;99.90;;;;;;5032297;28;20132;-69
2023/07/23 01:57:58;;;;;;;7.65;5.78;;;14.80;99.90;;;;;;5047105;28;20157;-68
2023/07/23 02:00:24;;;;;;;9.25;6.05;;;14.80;99.90;;;;;;5031937;28;20042;-69
2023/07/23 02:02:50;;;;;;;9.23;6.28;;;14.80;99.90;;;;;;5030365;28;20340;-69
2023/07/23 02:05:21;;;;;;;8.75;5.75;;;14.80;99.90;;;;;;5032102;28;20107;-68
2023/07/23 02:07:47;;;;;;;10.43;6.47;;;14.80;99.90;;;;;;5030529;28;20132;-67
2023/07/23 02:10:12;;;;;;;8.38;6.10;;;14.80;99.90;;;;;;5031938;28;20145;-67
2023/07/23 02:12:38;;;;;;;9.10;6.35;;;14.80;99.90;;;;;;5032049;28;20052;-68
2023/07/23 02:15:04;;;;;;;10.75;5.72;;;14.80;99.90;;;;;;5031602;28;20128;-68
2023/07/23 02:17:30;;;;;;;8.43;5.70;;;14.80;99.90;;;;;;5032005;28;20124;-70
2023/07/23 02:19:56;;;;;;;8.23;5.88;;;14.80;99.90;;;;;;5030475;28;20133;-68
2023/07/23 02:22:22;;;;;;;7.32;5.47;;;14.80;99.90;;;;;;5031670;28;20195;-68
2023/07/23 02:24:47;;;;;;;9.52;5.40;;;14.80;99.90;;;;;;5031586;28;20045;-73
2023/07/23 02:27:16;;;;;;;7.85;5.80;;;14.80;99.90;;;;;;5032018;28;20060;-68
2023/07/23 02:29:41;;;;;;;8.35;5.90;;;14.80;99.90;;;;;;5031711;28;20045;-68
2023/07/23 02:32:10;;;;;;;7.25;5.13;;;14.80;99.90;;;;;;5029932;28;20605;-68
2023/07/23 02:34:36;;;;;;;9.00;5.95;;;14.80;99.90;;;;;;5031812;28;20056;-68
2023/07/23 02:37:02;;;;;;;10.15;5.90;;;14.80;99.90;;;;;;5031522;28;20050;-68
2023/07/23 02:39:28;;;;;;;8.98;5.63;;;14.70;99.90;;;;;;5031829;28;20045;-69
2023/07/23 02:41:53;;;;;;;8.27;5.80;;;14.80;99.90;;;;;;5031154;28;20041;-69
2023/07/23 02:44:19;;;;;;;10.27;6.32;;;14.80;99.90;;;;;;5031668;28;20135;-69
2023/07/23 02:46:45;;;;;;;7.85;5.95;;;14.80;99.90;;;;;;5031909;28;20056;-69
2023/07/23 02:49:11;;;;;;;9.45;5.80;;;14.70;99.90;;;;;;5031043;28;20312;-68
2023/07/23 02:51:36;;;;;;;9.98;5.65;;;14.80;99.90;;;;;;5030633;28;20129;-69
2023/07/23 02:54:03;;;;;;;8.88;5.53;;;14.80;99.90;;;;;;5029893;28;20041;-69
2023/07/23 02:56:29;;;;;;;9.43;5.85;;;14.70;99.90;;;;;;5031676;28;20057;-69
2023/07/23 02:58:55;;;;;;;10.63;5.72;;;14.80;99.90;;;;;;5031328;28;20128;-70
2023/07/23 03:01:20;;;;;;;9.48;6.32;;;14.80;99.90;;;;;;5031239;28;20126;-69
2023/07/23 03:03:47;;;;;;;8.55;5.40;;;14.80;99.90;;;;;;5033341;28;20057;-69
2023/07/23 03:06:14;;;;;;;7.55;5.28;;;14.80;99.90;;;;;;5034776;28;20049;-70
2023/07/23 03:08:40;;;;;;;9.32;5.82;;;14.80;99.90;;;;;;5035150;28;20087;-69
2023/07/23 03:11:06;;;;;;;8.80;5.90;;;14.80;99.90;;;;;;5034687;28;20041;-69
2023/07/23 03:13:32;;;;;;;9.82;6.20;;;14.80;99.90;;;;;;5033830;28;20079;-69
2023/07/23 03:15:58;;;;;;;9.77;5.78;;;14.80;99.90;;;;;;5033326;28;20060;-70
2023/07/23 03:18:24;;;;;;;10.80;5.78;;;14.80;99.90;;;;;;5034761;28;20102;-69
2023/07/23 03:20:49;;;;;;;8.63;6.13;;;14.80;99.90;;;;;;5034713;28;20053;-69
2023/07/23 03:23:15;;;;;;;8.15;5.78;;;14.80;99.90;;;;;;5034632;28;20128;-69
2023/07/23 03:25:41;;;;;;;12.30;6.20;;;14.80;99.90;;;;;;5034957;28;20492;-69
2023/07/23 03:28:07;;;;;;;9.93;6.22;;;14.80;99.90;;;;;;5034720;28;20410;-69
2023/07/23 03:30:33;;;;;;;10.00;5.90;;;14.80;99.90;;;;;;5034707;28;20049;-69
2023/07/23 03:32:59;;;;;;;11.30;6.65;;;14.80;99.90;;;;;;5034265;28;20050;-70
2023/07/23 03:35:24;;;;;;;8.80;6.45;;;14.90;99.90;;;;;;5034752;28;20107;-69
2023/07/23 03:37:50;;;;;;;9.15;6.50;;;14.90;99.90;;;;;;5034787;28;20045;-69
2023/07/23 03:40:16;;;;;;;9.77;5.55;;;14.90;99.90;;;;;;5034241;28;20358;-69
2023/07/23 03:42:42;;;;;;;10.15;6.55;;;14.80;99.90;;;;;;5017261;28;20132;-69
2023/07/23 03:45:08;;;;;;;9.45;6.65;;;14.80;99.90;;;;;;5033118;28;20053;-69
2023/07/23 03:47:34;;;;;;;12.43;6.65;;;14.90;99.90;;;;;;5034678;28;20049;-69
2023/07/23 03:49:59;;;;;;;12.20;7.18;;;14.90;99.90;;;;;;5033975;28;20042;-73
2023/07/23 03:52:25;;;;;;;8.73;6.38;;;14.90;99.90;;;;;;5033267;28;20052;-70
2023/07/23 03:54:51;;;;;;;12.15;7.53;;;14.90;99.90;;;;;;5033480;28;20038;-69
2023/07/23 03:57:17;;;;;;;10.05;6.40;;;14.90;99.90;;;;;;5033996;28;20126;-69
2023/07/23 03:59:44;;;;;;;10.40;6.70;;;14.80;99.90;;;;;;5034245;28;20492;-69
2023/07/23 04:02:10;;;;;;;9.45;7.10;;;14.80;99.90;;;;;;5033661;28;20046;-69
2023/07/23 04:04:37;;;;;;;9.68;6.45;;;14.80;99.90;;;;;;5034191;28;20147;-70
2023/07/23 04:07:04;;;;;;;11.07;7.15;;;14.80;99.90;;;;;;5033817;28;20049;-74
2023/07/23 04:09:30;;;;;;;10.65;6.85;;;14.80;99.90;;;;;;5034051;28;20052;-70
2023/07/23 04:11:56;;;;;;;9.70;6.78;;;14.80;99.90;;;;;;5033809;28;20138;-69
2023/07/23 04:14:22;;;;;;;10.23;6.47;;;14.80;99.90;;;;;;5031648;28;20216;-70
2023/07/23 04:16:48;;;;;;;11.20;7.47;;;14.80;99.90;;;;;;5034144;28;20081;-69
2023/07/23 04:19:14;;;;;;;11.00;6.82;;;14.80;99.90;;;;;;5033610;28;20049;-69
2023/07/23 04:21:40;;;;;;;11.45;7.53;;;14.80;99.90;;;;;;5033710;28;20111;-69
2023/07/23 04:24:06;;;;;;;10.85;6.30;;;14.80;99.90;;;;;;5015866;28;20045;-73
2023/07/23 04:26:31;;;;;;;9.40;6.72;;;14.80;99.90;;;;;;5034034;28;20180;-70
2023/07/23 04:28:58;;;;;;;11.95;6.55;;;14.80;99.90;;;;;;5032487;28;20045;-69
2023/07/23 04:31:24;;;;;;;10.15;6.53;;;14.80;99.90;;;;;;5033320;28;20213;-69
2023/07/23 04:33:50;;;;;;;11.32;6.72;;;14.80;99.90;;;;;;5032538;28;20506;-70
2023/07/23 04:36:16;;;;;;;10.18;6.82;;;14.80;99.90;;;;;;5033484;28;20049;-70
2023/07/23 04:38:43;;;;;;;12.23;7.07;;;14.80;99.90;;;;;;5033304;28;20124;-70
2023/07/23 04:41:09;;;;;;;11.00;6.45;;;14.80;99.90;;;;;;5033152;28;20049;-70
2023/07/23 04:43:36;;;;;;;10.65;6.47;;;14.80;99.90;;;;;;5033563;28;20080;-70
2023/07/23 04:46:04;;;;;;;10.00;6.57;;;14.90;99.90;;;;;;5033443;28;20164;-70
2023/07/23 04:48:33;;;;;;;10.52;7.07;;;14.80;99.90;;;;;;5032831;28;20053;-69
2023/07/23 04:51:01;;;;;;;10.00;7.05;;;14.80;99.90;;;;;;5032659;28;20111;-70
2023/07/23 04:53:27;;;;;;;9.63;6.57;;;14.80;99.90;;;;;;5032527;28;20060;-70
2023/07/23 04:55:54;;;;;;;10.60;6.97;;;14.90;99.90;;;;;;5033013;28;20429;-71
2023/07/23 04:58:20;;;;;;;13.48;7.55;;;14.90;99.90;;;;;;5031550;28;20110;-71
2023/07/23 05:00:46;;;;;;;12.52;7.30;;;14.90;99.90;;;;;;5033051;28;20048;-72
2023/07/23 05:03:12;;;;;;;10.60;7.22;;;14.80;99.90;;;;;;5032690;28;20142;-71
2023/07/23 05:05:41;;;;;;;11.02;7.15;;;14.90;99.90;;;;;;5032974;28;20132;-70
2023/07/23 05:08:07;;;;;;;11.55;6.65;;;14.90;99.90;;;;;;5032941;28;20049;-70
2023/07/23 05:10:33;;;;;;;8.40;6.82;;;14.90;99.90;;;;;;5031697;28;20184;-70
2023/07/23 05:12:58;;;;;;;9.35;6.93;;;14.90;99.90;;;;;;5031739;28;20045;-70
2023/07/23 05:15:24;;;;;;;11.48;6.97;;;14.90;99.90;;;;;;5031474;28;20041;-71
2023/07/23 05:17:50;;;;;;;9.98;6.82;;;14.90;99.90;;;;;;5032821;28;20056;-70
2023/07/23 05:20:15;;;;;;;10.45;7.20;;;14.90;99.90;;;;;;5031176;28;20132;-71
2023/07/23 05:22:41;;;;;;;11.20;6.75;;;14.80;99.90;;;;;;5032847;28;20053;-70
2023/07/23 05:25:08;;;;;;;10.65;7.10;;;14.90;99.90;;;;;;5031219;28;20049;-70
2023/07/23 05:27:34;;;;;;;11.15;7.18;;;14.90;99.90;;;;;;5031450;28;20071;-70
2023/07/23 05:30:01;;;;;;;10.77;7.45;;;14.90;99.90;;;;;;5031322;28;20057;-70
2023/07/23 05:32:26;;;;;;;10.02;7.68;;;14.90;99.90;;;;;;5032181;28;20056;-70
2023/07/23 05:34:55;;;;;;;11.45;7.22;;;14.90;99.90;;;;;;5031355;28;20403;-70
2023/07/23 05:37:21;;;;;;;9.52;7.00;;;14.90;99.90;;;;;;5030568;28;20407;-71
2023/07/23 05:39:48;;;;;;;10.07;7.60;;;14.90;99.90;;;;;;5015056;28;20045;-70
2023/07/23 05:42:14;;;;;;;12.75;8.38;;;14.90;99.90;;;;;;5047771;28;20056;-70
2023/07/23 05:44:39;;;;;;;15.32;8.55;;;14.90;99.90;;;;;;5032107;28;20441;-70
2023/07/23 05:47:05;;;;;;;11.32;7.43;;;14.90;99.90;;;;;;5031991;28;20045;-71
2023/07/23 05:49:31;;;;;;;15.50;8.25;;;14.90;99.90;;;;;;5030839;28;20129;-70
2023/07/23 05:52:00;;;;;;;11.32;7.60;;;14.90;99.90;;;;;;5014869;28;20057;-70
2023/07/23 05:54:26;;;;;;;10.77;7.70;;;14.90;99.90;;;;;;5031894;28;20491;-70
2023/07/23 05:56:52;;;;;;;12.65;8.13;;;14.90;99.90;;;;;;5031187;28;20056;-70
2023/07/23 05:59:18;;;;;;;12.27;7.78;;;14.90;99.90;;;;;;5031667;28;20056;-74
2023/07/23 06:01:44;;;;;;;10.88;7.75;;;14.90;99.90;;;;;;5031830;28;20037;-70
2023/07/23 06:04:10;;;;;;;12.27;8.55;;;14.90;99.90;;;;;;5032171;28;20056;-70
2023/07/23 06:06:35;;;;;;;13.13;8.00;;;14.90;99.90;;;;;;5031787;28;20060;-71
2023/07/23 06:09:03;;;;;;;12.77;9.05;;;14.90;99.90;;;;;;5032371;28;20056;-70
2023/07/23 06:11:30;;;;;;;13.55;8.77;;;14.90;99.90;;;;;;5030324;28;20042;-70
2023/07/23 06:13:56;;;;;;;12.27;8.45;;;15.00;99.90;;;;;;5031695;28;20598;-70
2023/07/23 06:16:22;;;;;;;11.32;7.57;;;14.90;99.90;;;;;;5031711;28;20057;-74
2023/07/23 06:18:47;;;;;;;13.80;8.93;;;15.00;99.90;;;;;;5030614;28;20523;-71
2023/07/23 06:21:13;;;;;;;14.57;8.63;;;15.00;99.90;;;;;;5031452;28;20053;-71
2023/07/23 06:23:39;;;;;;;13.73;8.90;;;15.00;99.90;;;;;;5030147;28;20377;-71
2023/07/23 06:26:05;;;;;;;13.43;8.35;;;15.00;99.90;;;;;;5030189;28;20100;-71
2023/07/23 06:28:31;;;;;;;12.77;9.00;;;15.00;99.90;;;;;;5031467;28;20046;-71
2023/07/23 06:30:57;;;;;;;12.88;9.05;;;15.10;99.90;;;;;;5031907;28;20045;-71
2023/07/23 06:33:23;;;;;;;11.38;7.65;;;15.10;99.90;;;;;;5031611;28;20049;-74
2023/07/23 06:35:49;;;;;;;14.05;8.30;;;15.10;99.90;;;;;;5030234;28;20096;-71
2023/07/23 06:38:15;;;;;;;13.70;9.05;;;15.10;99.90;;;;;;5032534;28;20076;-70
2023/07/23 06:40:50;;;;;;;11.80;7.68;;;15.20;99.90;;;;;;5034286;28;20068;-71
2023/07/23 06:43:16;;;;;;;11.80;7.93;;;15.20;99.90;;;;;;5051009;28;20061;-70
2023/07/23 06:45:46;;;;;;;12.15;7.93;;;15.40;99.90;;;;;;5034252;28;20132;-71
2023/07/23 06:48:13;;;;;;;12.63;8.45;;;15.30;99.90;;;;;;5034214;28;20056;-69
2023/07/23 06:50:39;;;;;;;12.98;8.43;;;15.30;99.90;;;;;;5035161;28;20045;-70
2023/07/23 06:53:05;;;;;;;15.35;8.43;;;15.30;99.90;;;;;;5035140;28;20124;-70
2023/07/23 06:55:56;;;;;;;11.45;8.40;;;15.30;99.90;;;;;;5050518;28;20470;-70
2023/07/23 06:58:21;;;;;;;13.40;8.63;;;15.40;99.90;;;;;;5033981;28;20079;-71
2023/07/23 07:00:47;;;;;;;12.48;8.48;;;15.40;99.90;;;;;;5034728;28;20041;-69
2023/07/23 07:03:13;;;;;;;13.13;7.55;;;15.50;99.90;;;;;;5017310;28;20045;-70
2023/07/23 07:05:38;;;;;;;14.65;8.55;;;15.60;99.90;;;;;;5033776;28;20139;-70
2023/07/23 07:08:04;;;;;;;14.45;8.50;;;15.60;99.90;;;;;;5033861;28;20095;-70
2023/07/23 07:10:30;;;;;;;16.15;8.80;;;15.60;99.90;;;;;;5033847;28;20076;-75
2023/07/23 07:12:56;;;;;;;11.23;7.70;;;15.70;99.90;;;;;;5034753;28;20053;-70
2023/07/23 07:15:21;;;;;;;13.32;9.20;;;15.70;99.90;;;;;;5034961;28;20049;-69
2023/07/23 07:17:47;;;;;;;15.15;8.98;;;15.70;99.90;;;;;;5034636;28;20060;-71
2023/07/23 07:20:13;;;;;;;12.98;9.02;;;15.70;99.90;;;;;;5034646;28;20057;-70
2023/07/23 07:22:39;;;;;;;11.45;8.70;;;15.70;99.90;;;;;;5034526;28;20049;-70
2023/07/23 07:25:05;;;;;;;13.43;9.10;;;15.70;99.90;;;;;;5034479;28;20041;-69
2023/07/23 07:27:31;;;;;;;13.45;9.55;;;15.70;99.90;;;;;;5033827;28;20057;-74
2023/07/23 07:29:56;;;;;;;11.63;8.80;;;15.70;99.90;;;;;;5034816;28;20446;-69
2023/07/23 07:32:22;;;;;;;11.75;9.15;;;15.70;99.90;;;;;;5034762;28;20060;-72
2023/07/23 07:34:48;;;;;;;11.50;7.30;;;15.70;99.90;;;;;;5033093;28;20050;-69
2023/07/23 07:37:13;;;;;;;15.35;10.07;;;15.70;99.90;;;;;;5034177;28;20064;-70
2023/07/23 07:39:40;;;;;;;13.98;9.27;;;15.70;99.90;;;;;;5033144;28;20059;-70
2023/07/23 07:42:07;;;;;;;13.20;9.10;;;15.80;99.90;;;;;;5034414;28;20046;-70
2023/07/23 07:44:33;;;;;;;13.55;8.88;;;15.80;99.90;;;;;;5017120;28;20057;-69
2023/07/23 07:46:58;;;;;;;14.35;8.77;;;15.70;99.90;;;;;;5033890;28;20049;-69
2023/07/23 07:49:24;;;;;;;15.20;9.75;;;15.80;99.90;;;;;;5033244;28;20049;-70
2023/07/23 07:51:50;;;;;;;14.35;8.55;;;15.80;99.90;;;;;;5033104;28;20505;-69
2023/07/23 07:54:16;;;;;;;15.30;10.27;;;15.80;99.90;;;;;;5034427;28;20111;-68
2023/07/23 07:56:43;;;;;;;15.77;9.07;;;15.80;99.90;;;;;;5033896;28;20045;-70
2023/07/23 07:59:10;;;;;;;15.98;10.15;;;15.90;99.90;;;;;;5049377;28;20084;-71
2023/07/23 08:01:36;;;;;;;14.65;10.30;;;15.80;99.90;;;;;;5033355;28;20037;-75
2023/07/23 08:04:03;;;;;;;14.93;9.23;;;15.90;99.90;;;;;;5033908;28;20128;-69
2023/07/23 08:06:31;;;;;;;14.68;8.88;;;15.90;99.90;;;;;;5032763;28;20348;-69
2023/07/23 08:08:58;;;;;;;14.60;8.98;;;15.90;99.90;;;;;;5033243;28;20490;-69
2023/07/23 08:11:25;;;;;;;13.15;9.30;;;15.90;99.90;;;;;;5049346;28;20041;-69
2023/07/23 08:13:51;;;;;;;13.70;9.07;;;15.90;99.90;;;;;;5032221;28;20050;-69
2023/07/23 08:16:18;;;;;;;11.18;8.15;;;15.90;99.90;;;;;;5032795;28;20056;-69
2023/07/23 08:18:44;;;;;;;16.05;9.52;;;15.90;99.90;;;;;;5033377;28;20057;-71
2023/07/23 08:21:11;;;;;;;14.23;9.80;;;15.90;99.90;;;;;;5032240;28;20057;-70
2023/07/23 08:23:37;;;;;;;16.50;9.13;;;15.90;99.90;;;;;;5032833;28;20045;-69
2023/07/23 08:26:05;;;;;;;14.88;9.77;;;16.00;99.90;;;;;;5032154;28;20399;-69
2023/07/23 08:28:34;;;;;;;14.57;9.27;;;16.00;99.90;;;;;;5032553;28;20045;-69
2023/07/23 08:31:09;;;;;;;17.00;8.75;;;16.00;99.90;;;;;;5033290;28;20056;-71
2023/07/23 08:33:36;;;;;;;12.07;8.70;;;15.60;99.90;;;;;;5015478;28;20502;-69
2023/07/23 08:36:01;;;;;;;13.55;8.45;;;16.10;99.90;;;;;;5033005;28;20092;-69
2023/07/23 08:38:28;;;;;;;12.00;8.90;;;16.10;99.90;;;;;;5033567;28;20053;-69
2023/07/23 08:41:00;;;;;;;12.57;8.75;;;16.10;99.90;;;;;;5032845;28;20052;-69
2023/07/23 08:43:52;;;;;;;12.57;9.57;;;16.10;99.90;;;;;;5033236;28;20478;-69
2023/07/23 08:46:24;;;;;;;13.40;10.23;;;16.10;99.90;;;;;;5032557;28;20065;-69
2023/07/23 08:48:56;;;;;;;13.23;9.50;;;16.10;99.90;;;;;;5032897;28;20052;-68
2023/07/23 08:51:34;;;;;;;11.98;9.55;;;16.10;99.90;;;;;;5032040;28;20054;-68
2023/07/23 08:54:02;;;;;;;13.02;9.23;;;16.10;99.90;;;;;;5032781;28;20523;-69
2023/07/23 08:56:28;;;;;;;10.52;8.70;;;16.10;99.90;;;;;;5031976;28;20060;-70
2023/07/23 08:58:54;;;;;;;12.70;9.15;;;16.10;99.90;;;;;;5032650;28;20050;-69
2023/07/23 09:01:20;;;;;;;13.15;9.27;;;16.10;99.90;;;;;;5032660;28;20128;-69
2023/07/23 09:03:47;;;;;;;12.57;8.15;;;16.10;99.90;;;;;;5015199;28;20129;-76
2023/07/23 09:06:13;;;;;;;11.95;8.27;;;16.20;99.90;;;;;;5032776;28;20049;-70
2023/07/23 09:08:38;;;;;;;11.02;8.50;;;16.20;99.90;;;;;;5032722;28;20096;-72
2023/07/23 09:11:06;;;;;;;14.75;9.48;;;16.20;99.90;;;;;;5030933;28;20042;-71
2023/07/23 09:13:34;;;;;;;11.75;8.48;;;16.20;99.90;;;;;;5032577;28;20055;-70
2023/07/23 09:15:59;;;;;;;11.82;9.32;;;16.20;99.90;;;;;;5032229;28;20046;-70
2023/07/23 09:18:25;;;;;;;10.18;8.30;;;16.20;99.90;;;;;;5014951;28;20052;-70
2023/07/23 09:20:51;;;;;;;13.15;8.82;;;16.20;99.90;;;;;;5032217;28;20057;-71
2023/07/23 09:23:17;;;;;;;13.73;9.82;;;16.20;99.90;;;;;;5031201;28;20061;-70
2023/07/23 09:25:44;;;;;;;12.70;9.55;;;16.20;99.90;;;;;;5032604;28;20450;-70
2023/07/23 09:28:22;;;;;;;10.98;9.27;;;16.20;99.90;;;;;;5032181;28;20135;-71
2023/07/23 09:30:51;;;;;;;10.45;8.18;;;16.20;99.90;;;;;;5032583;28;20042;-70
2023/07/23 09:33:17;;;;;;;12.85;9.93;;;16.20;99.90;;;;;;5031316;28;20168;-70
2023/07/23 09:35:43;;;;;;;12.40;9.35;;;16.30;99.90;;;;;;5014708;28;20460;-70
2023/07/23 09:38:15;;;;;;;11.38;8.82;;;16.20;99.90;;;;;;5032206;28;20045;-70
2023/07/23 09:40:42;;;;;;;13.27;9.18;;;16.30;99.90;;;;;;5032206;28;20498;-70
2023/07/23 09:43:08;;;;;;;12.45;8.73;;;16.30;99.90;;;;;;5031947;28;20103;-70
2023/07/23 09:45:39;;;;;;;16.13;9.45;;;16.30;99.90;;;;;;5030944;28;20052;-71
2023/07/23 09:48:06;;;;;;;12.43;9.05;;;16.20;99.90;;;;;;5031048;28;20498;-71
2023/07/23 09:50:32;;;;;;;11.77;8.15;;;16.30;99.90;;;;;;5032241;28;20065;-71
2023/07/23 09:52:58;;;;;;;16.00;9.23;;;16.30;99.90;;;;;;5030848;28;20438;-71
2023/07/23 09:55:24;;;;;;;13.70;8.90;;;16.30;99.90;;;;;;5032213;28;20124;-71
2023/07/23 09:57:51;;;;;;;14.65;8.98;;;16.30;99.90;;;;;;5014459;28;20128;-69
2023/07/23 10:00:18;;;;;;;11.77;7.75;;;16.30;99.90;;;;;;5030580;28;20041;-72
2023/07/23 10:02:48;;;;;;;10.82;8.75;;;16.30;99.90;;;;;;5029767;28;20060;-70
2023/07/23 10:05:15;;;;;;;12.05;9.18;;;16.30;99.90;;;;;;5029649;28;20057;-71
2023/07/23 10:07:42;;;;;;;13.35;8.60;;;16.30;99.90;;;;;;5032194;28;20053;-70
2023/07/23 10:10:08;;;;;;;10.60;8.88;;;16.40;99.90;;;;;;5031584;28;20064;-71
2023/07/23 10:12:34;;;;;;;11.48;8.68;;;16.40;99.90;;;;;;5030085;28;20053;-68
2023/07/23 10:15:01;;;;;;;11.75;9.40;;;16.40;99.90;;;;;;5030404;28;20055;-69
2023/07/23 10:17:28;;;;;;;12.40;8.57;;;16.40;99.90;;;;;;5030443;28;20447;-70
2023/07/23 10:19:56;;;;;;;12.27;8.70;;;16.30;99.90;;;;;;5032032;28;20054;-70
2023/07/23 10:22:25;;;;;;;15.52;9.20;;;16.30;99.90;;;;;;5046131;28;20061;-72
2023/07/23 10:24:52;;;;;;;12.95;8.93;;;16.30;99.90;;;;;;5031992;28;20410;-71
2023/07/23 10:27:18;;;;;;;12.88;9.50;;;16.30;99.90;;;;;;5030269;28;20316;-75
2023/07/23 10:30:20;;;;;;;11.15;8.55;;;16.40;99.90;;;;;;5030748;28;20052;-70
2023/07/23 10:33:08;;;;;;;9.43;7.53;;;16.40;99.90;;;;;;5030410;28;20053;-70
2023/07/23 10:35:52;;;;;;;11.05;8.95;;;16.40;99.90;;;;;;5031405;28;20423;-70
2023/07/23 10:38:20;;;;;;;14.63;7.97;;;16.40;99.90;;;;;;5031044;28;20049;-70
2023/07/23 10:40:47;;;;;;;15.15;8.85;;;16.40;99.90;;;;;;5031402;28;20049;-70
2023/07/23 10:43:14;;;;;;;13.00;8.73;;;16.40;99.90;;;;;;5031132;28;20042;-71
2023/07/23 10:45:46;;;;;;;12.23;8.63;;;16.50;99.90;;;;;;5031901;28;20049;-70
2023/07/23 10:48:19;;;;;;;13.02;7.93;;;16.50;99.90;;;;;;5031121;28;20060;-70
2023/07/23 10:51:05;;;;;;;12.93;8.18;;;16.50;99.90;;;;;;5031609;28;20077;-71
2023/07/23 10:53:31;;;;;;;12.90;8.38;;;16.50;99.90;;;;;;5030160;28;20046;-71
2023/07/23 10:56:00;;;;;;;11.05;7.97;;;16.50;99.90;;;;;;5046905;28;20053;-70
2023/07/23 10:58:27;;;;;;;13.07;8.32;;;16.60;99.90;;;;;;5030993;28;20050;-73
2023/07/23 11:00:58;;;;;;;12.35;8.00;;;16.60;99.90;;;;;;5031402;28;20045;-70
2023/07/23 11:03:25;;;;;;;12.95;8.63;;;16.60;99.90;;;;;;5030694;28;20041;-72
2023/07/23 11:05:52;;;;;;;11.88;8.55;;;16.60;99.90;;;;;;5030238;28;20133;-73
2023/07/23 11:08:26;;;;;;;9.98;7.82;;;16.70;99.90;;;;;;5030142;28;20062;-71
2023/07/23 11:10:58;;;;;;;11.65;8.00;;;16.70;99.90;;;;;;5030263;28;20548;-72
2023/07/23 11:13:32;;;;;;;12.27;8.80;;;16.70;99.90;;;;;;5030695;28;20052;-72
2023/07/23 11:15:58;;;;;;;12.20;8.88;;;16.80;99.90;;;;;;5031670;28;20445;-72
2023/07/23 11:18:25;;;;;;;10.30;8.00;;;16.80;99.90;;;;;;5030746;28;20057;-71
2023/07/23 11:20:52;;;;;;;12.70;8.63;;;16.80;99.90;;;;;;5046135;28;20061;-72
2023/07/23 11:23:20;;;;;;;13.02;7.63;;;16.80;99.90;;;;;;5029981;28;20049;-71
2023/07/23 11:25:50;;;;;;;12.25;8.20;;;16.90;99.90;;;;;;5050301;28;20056;-72
2023/07/23 11:28:21;;;;;;;10.15;7.93;;;16.90;99.90;;;;;;5034586;28;20052;-72
2023/07/23 11:30:50;;;;;;;11.32;7.53;;;17.00;99.90;;;;;;5033687;28;20594;-71
2023/07/23 11:33:17;;;;;;;12.23;7.72;;;16.90;99.90;;;;;;5032961;28;20053;-71
2023/07/23 11:35:43;;;;;;;11.98;8.25;;;16.90;99.90;;;;;;5033575;28;20053;-73
2023/07/23 11:38:09;;;;;;;8.45;6.75;;;16.90;99.90;;;;;;5033526;28;20395;-79
2023/07/23 11:40:37;;;;;;;13.88;8.60;;;17.00;99.90;;;;;;5033512;28;20045;-71
2023/07/23 11:43:05;;;;;;;9.32;7.28;;;17.00;99.90;;;;;;5034439;28;20049;-71
2023/07/23 11:45:31;;;;;;;11.45;7.55;;;17.00;99.90;;;;;;5049312;28;20045;-72
2023/07/23 11:47:56;;;;;;;10.20;7.07;;;17.00;99.90;;;;;;5033261;28;20045;-72
2023/07/23 11:50:24;;;;;;;14.70;7.28;;;17.00;99.90;;;;;;5033929;28;20045;-71
2023/07/23 11:52:51;;;;;;;11.68;8.43;;;17.10;99.90;;;;;;5034176;28;20156;-71
2023/07/23 11:55:27;;;;;;;12.45;7.78;;;17.10;99.90;;;;;;5034089;28;20122;-72
2023/07/23 11:58:00;;;;;;;12.38;7.45;;;17.10;99.90;;;;;;5033450;28;20041;-71
2023/07/23 12:00:30;;;;;;;11.68;6.93;;;17.10;99.90;;;;;;5033886;28;20491;-70
2023/07/23 12:02:57;;;;;;;12.05;7.03;;;17.10;99.90;;;;;;5034325;28;20056;-70
2023/07/23 12:05:23;;;;;;;10.30;7.45;;;17.10;99.90;;;;;;5033001;28;20479;-70
2023/07/23 12:07:52;;;;;;;9.73;7.70;;;17.10;99.90;;;;;;5033987;28;20121;-72
2023/07/23 12:10:18;;;;;;;10.32;6.82;;;17.10;99.90;;;;;;5033830;28;20049;-71
2023/07/23 12:12:48;;;;;;;9.13;6.63;;;17.10;99.90;;;;;;5032918;28;20179;-70
2023/07/23 12:15:15;;;;;;;9.93;6.65;;;17.10;99.90;;;;;;5033168;28;20138;-79
2023/07/23 12:17:41;;;;;;;9.57;6.95;;;17.00;99.90;;;;;;5034215;28;20045;-70
2023/07/23 12:20:14;;;;;;;10.00;7.65;;;17.10;99.90;;;;;;5048855;28;20049;-71
2023/07/23 12:22:51;;;;;;;8.40;6.45;;;17.00;99.90;;;;;;5033321;28;20049;-71
2023/07/23 12:25:17;;;;;;;8.77;5.75;;;17.10;99.90;;;;;;5032105;28;20502;-77
2023/07/23 12:27:43;;;;;;;8.95;6.55;;;17.10;99.90;;;;;;5032410;28;20045;-70
2023/07/23 12:30:09;;;;;;;9.15;6.57;;;17.10;99.90;;;;;;5033651;28;20099;-69
2023/07/23 12:32:34;;;;;;;9.20;7.05;;;17.20;99.90;;;;;;5032169;28;20392;-72
2023/07/23 12:35:01;;;;;;;8.65;6.60;;;17.20;99.90;;;;;;5032967;28;20104;-71
2023/07/23 12:37:27;;;;;;;10.32;5.55;;;17.30;99.90;;;;;;5033153;28;20053;-72